Airfield :
LOGIN :

Register | Disclaimer

   EN    FR    IT 

 










Legend :    VFR   Marginal VFR   IFR   Intensive IFR   Very Intensive IFR
Visi :
Ceiling :
>= 8 km
>= 3000ft
5 to 8 km
1000 to 3000 ft
1500m to 5 km
500 to 1000 ft
800 to 1500m
200 to 500 ft
< 800m
< 200 ft
Symbols :   Thunderstorms  Fog  Heavy snow  Heavy precipitations  Wind > 20 kt
SIGMETs :     Misc.  Thunderstorms  Icing  Turbulence  Mountain Waves  Volcanic Ashes






- Airport Elevation : 335 ft
- IATA code : BEG


LYBE - Belgrade Nikola Tesla

CURRENT METAR :
  • 080900Z 02006KT 5000 BR BKN025 05/05 Q1014 NOSIG

EXPIRED METARs :
  • 080830Z 03006KT 360V070 5000 BR BKN025 05/05 Q1014 NOSIG
  • 080800Z 04006KT 5000 BR BKN025 04/04 Q1014 NOSIG
  • 080730Z 02003KT 5000 BR BKN027 04/04 Q1014 NOSIG
  • 080700Z VRB02KT 6000 BKN033 04/04 Q1014 NOSIG
  • 080630Z VRB02KT 7000 SCT040 04/04 Q1014 NOSIG

TAF TAF LYBE
Valid from the 08 at 06:00 until the 09 at 06:00 UTC


080500Z 0806/0906 08005KT 9999 BKN040 TX08/0813Z TN04/0806Z
TEMPO 0812/0816 VRB15KT SHRA SCT015 SCT030TCU BKN040
BECMG 0818/0820 3000 BR
BECMG 0822/0824 0300 FG VV002



MET'MAP, your aeronautical weather chart ! - Copyright ORBIFLY December 2007 - Disclaimer

ORBIFLY MET'MAP TEAM :

Programming & Development : Alexandra Zaïnal
Original concept : Baudouin d'Aumeries
Technical & hardware support : Manuel Goepfert
Assistance : Marc-Olivier Méhu




SOURCES & CREDITS :

   NOAA